sensor_id;sensor_type;location;lat;lon;timestamp;pressure;altitude;pressure_sealevel;temperature;humidity
49945;BME280;35838;49.134;9.212;2022-10-31T00:00:53;100344.41;;;13.01;98.98
49945;BME280;35838;49.134;9.212;2022-10-31T00:02:27;100344.41;;;13.01;98.87
49945;BME280;35838;49.134;9.212;2022-10-31T00:04:01;100341.78;;;13.03;98.96
49945;BME280;35838;49.134;9.212;2022-10-31T00:05:40;100347.00;;;13.03;98.84
49945;BME280;35838;49.134;9.212;2022-10-31T00:07:15;100343.53;;;13.03;98.69
49945;BME280;35838;49.134;9.212;2022-10-31T00:08:52;100344.38;;;13.05;97.81
49945;BME280;35838;49.134;9.212;2022-10-31T00:10:26;100342.66;;;13.04;97.57
49945;BME280;35838;49.134;9.212;2022-10-31T00:11:58;100340.06;;;13.02;97.57
49945;BME280;35838;49.134;9.212;2022-10-31T00:13:32;100336.63;;;12.94;97.54
49945;BME280;35838;49.134;9.212;2022-10-31T00:15:04;100336.66;;;12.89;97.62
49945;BME280;35838;49.134;9.212;2022-10-31T00:16:38;100335.81;;;12.85;98.04
49945;BME280;35838;49.134;9.212;2022-10-31T00:18:12;100341.97;;;12.78;98.59
49945;BME280;35838;49.134;9.212;2022-10-31T00:19:43;100339.34;;;12.78;98.96
49945;BME280;35838;49.134;9.212;2022-10-31T00:21:21;100341.13;;;12.75;99.22
49945;BME280;35838;49.134;9.212;2022-10-31T00:22:57;100340.22;;;12.77;98.93
49945;BME280;35838;49.134;9.212;2022-10-31T00:24:31;100336.75;;;12.75;98.73
49945;BME280;35838;49.134;9.212;2022-10-31T00:26:05;100337.66;;;12.71;98.38
49945;BME280;35838;49.134;9.212;2022-10-31T00:27:37;100335.94;;;12.67;98.57
49945;BME280;35838;49.134;9.212;2022-10-31T00:29:11;100341.16;;;12.68;98.48
49945;BME280;35838;49.134;9.212;2022-10-31T00:30:46;100343.75;;;12.68;98.27
49945;BME280;35838;49.134;9.212;2022-10-31T00:32:20;100333.34;;;12.65;98.02
49945;BME280;35838;49.134;9.212;2022-10-31T00:33:54;100335.16;;;12.56;98.17
49945;BME280;35838;49.134;9.212;2022-10-31T00:35:28;100336.88;;;12.53;98.25
49945;BME280;35838;49.134;9.212;2022-10-31T00:37:05;100345.56;;;12.56;98.37
49945;BME280;35838;49.134;9.212;2022-10-31T00:38:39;100340.34;;;12.57;98.27
49945;BME280;35838;49.134;9.212;2022-10-31T00:40:13;100341.19;;;12.58;97.87
49945;BME280;35838;49.134;9.212;2022-10-31T00:41:44;100344.69;;;12.58;97.64
49945;BME280;35838;49.134;9.212;2022-10-31T00:43:18;100343.78;;;12.58;97.46
49945;BME280;35838;49.134;9.212;2022-10-31T00:44:50;100343.78;;;12.62;97.27
49945;BME280;35838;49.134;9.212;2022-10-31T00:46:24;100334.22;;;12.61;97.68
49945;BME280;35838;49.134;9.212;2022-10-31T00:47:58;100339.44;;;12.64;97.93
49945;BME280;35838;49.134;9.212;2022-10-31T00:49:29;100339.44;;;12.64;97.83
49945;BME280;35838;49.134;9.212;2022-10-31T00:51:04;100345.50;;;12.63;98.26
49945;BME280;35838;49.134;9.212;2022-10-31T00:52:40;100342.00;;;12.66;98.10
49945;BME280;35838;49.134;9.212;2022-10-31T00:54:14;100342.00;;;12.66;97.75
49945;BME280;35838;49.134;9.212;2022-10-31T00:55:48;100336.84;;;12.60;97.23
49945;BME280;35838;49.134;9.212;2022-10-31T00:57:20;100336.94;;;12.44;97.67
49945;BME280;35838;49.134;9.212;2022-10-31T00:58:54;100336.97;;;12.35;98.30
49945;BME280;35838;49.134;9.212;2022-10-31T01:00:28;100340.44;;;12.37;98.80
49945;BME280;35838;49.134;9.212;2022-10-31T01:01:59;100340.41;;;12.43;98.96
49945;BME280;35838;49.134;9.212;2022-10-31T01:03:34;100342.16;;;12.44;99.12
49945;BME280;35838;49.134;9.212;2022-10-31T01:05:09;100345.63;;;12.46;98.70
49945;BME280;35838;49.134;9.212;2022-10-31T01:06:43;100342.09;;;12.47;98.63
49945;BME280;35838;49.134;9.212;2022-10-31T01:08:20;100339.53;;;12.41;98.62
49945;BME280;35838;49.134;9.212;2022-10-31T01:09:51;100338.69;;;12.39;99.01
49945;BME280;35838;49.134;9.212;2022-10-31T01:11:25;100339.53;;;12.44;98.98
49945;BME280;35838;49.134;9.212;2022-10-31T01:12:59;100340.41;;;12.46;98.59
49945;BME280;35838;49.134;9.212;2022-10-31T01:14:31;100336.94;;;12.41;98.49
49945;BME280;35838;49.134;9.212;2022-10-31T01:16:06;100338.69;;;12.41;98.41
49945;BME280;35838;49.134;9.212;2022-10-31T01:17:41;100329.16;;;12.38;98.40
49945;BME280;35838;49.134;9.212;2022-10-31T01:19:12;100330.88;;;12.41;98.40
49945;BME280;35838;49.134;9.212;2022-10-31T01:20:46;100336.97;;;12.40;98.17
49945;BME280;35838;49.134;9.212;2022-10-31T01:22:18;100331.78;;;12.38;98.29
49945;BME280;35838;49.134;9.212;2022-10-31T01:23:55;100330.00;;;12.40;97.90
49945;BME280;35838;49.134;9.212;2022-10-31T01:25:30;100335.25;;;12.34;98.24
49945;BME280;35838;49.134;9.212;2022-10-31T01:27:01;100330.88;;;12.37;97.57
49945;BME280;35838;49.134;9.212;2022-10-31T01:28:37;100331.81;;;12.26;97.75
49945;BME280;35838;49.134;9.212;2022-10-31T01:30:12;100333.53;;;12.23;98.27
49945;BME280;35838;49.134;9.212;2022-10-31T01:31:46;100331.84;;;12.19;98.65
49945;BME280;35838;49.134;9.212;2022-10-31T01:33:17;100331.84;;;12.19;98.85
49945;BME280;35838;49.134;9.212;2022-10-31T01:34:51;100337.06;;;12.19;99.04
49945;BME280;35838;49.134;9.212;2022-10-31T01:36:27;100335.28;;;12.28;98.73
49945;BME280;35838;49.134;9.212;2022-10-31T01:38:02;100337.84;;;12.31;98.39
49945;BME280;35838;49.134;9.212;2022-10-31T01:39:36;100333.53;;;12.27;98.17
49945;BME280;35838;49.134;9.212;2022-10-31T01:41:11;100333.50;;;12.37;97.46
49945;BME280;35838;49.134;9.212;2022-10-31T01:42:45;100333.50;;;12.34;97.26
49945;BME280;35838;49.134;9.212;2022-10-31T01:46:25;100337.88;;;12.29;97.42
49945;BME280;35838;49.134;9.212;2022-10-31T01:47:59;100333.50;;;12.30;97.51
49945;BME280;35838;49.134;9.212;2022-10-31T01:49:36;100330.94;;;12.28;97.27
49945;BME280;35838;49.134;9.212;2022-10-31T01:51:12;100333.59;;;12.20;98.01
49945;BME280;35838;49.134;9.212;2022-10-31T01:52:50;100329.25;;;12.12;98.57
49945;BME280;35838;49.134;9.212;2022-10-31T01:54:24;100331.00;;;12.11;98.67
49945;BME280;35838;49.134;9.212;2022-10-31T01:56:03;100338.78;;;12.20;98.22
49945;BME280;35838;49.134;9.212;2022-10-31T01:57:40;100337.06;;;12.19;98.33
49945;BME280;35838;49.134;9.212;2022-10-31T01:59:16;100341.38;;;12.20;98.36
49945;BME280;35838;49.134;9.212;2022-10-31T02:00:55;100337.06;;;12.19;98.21
49945;BME280;35838;49.134;9.212;2022-10-31T02:02:31;100342.22;;;12.26;98.23
49945;BME280;35838;49.134;9.212;2022-10-31T02:04:03;100335.28;;;12.28;98.25
49945;BME280;35838;49.134;9.212;2022-10-31T02:05:38;100337.00;;;12.26;98.10
49945;BME280;35838;49.134;9.212;2022-10-31T02:07:12;100343.09;;;12.20;98.45
49945;BME280;35838;49.134;9.212;2022-10-31T02:08:48;100333.59;;;12.14;99.01
49945;BME280;35838;49.134;9.212;2022-10-31T02:10:23;100333.59;;;12.08;99.43
49945;BME280;35838;49.134;9.212;2022-10-31T02:11:58;100333.59;;;12.08;99.73
49945;BME280;35838;49.134;9.212;2022-10-31T02:13:34;100336.19;;;12.10;99.80
49945;BME280;35838;49.134;9.212;2022-10-31T02:15:09;100335.34;;;12.09;100.00
49945;BME280;35838;49.134;9.212;2022-10-31T02:16:41;100330.97;;;12.14;99.75
49945;BME280;35838;49.134;9.212;2022-10-31T02:18:15;100332.72;;;12.15;99.57
49945;BME280;35838;49.134;9.212;2022-10-31T02:19:52;100331.84;;;12.19;99.47
49945;BME280;35838;49.134;9.212;2022-10-31T02:21:36;100335.31;;;12.18;99.31
49945;BME280;35838;49.134;9.212;2022-10-31T02:23:41;100342.22;;;12.22;99.39
49945;BME280;35838;49.134;9.212;2022-10-31T02:25:33;100337.88;;;12.25;99.73
49945;BME280;35838;49.134;9.212;2022-10-31T02:30:05;100335.31;;;12.23;99.86
49945;BME280;35838;49.134;9.212;2022-10-31T02:31:44;100333.53;;;12.28;99.71
49945;BME280;35838;49.134;9.212;2022-10-31T02:33:23;100331.78;;;12.35;99.29
49945;BME280;35838;49.134;9.212;2022-10-31T02:35:08;100329.19;;;12.33;99.04
49945;BME280;35838;49.134;9.212;2022-10-31T02:36:46;100338.72;;;12.33;98.90
49945;BME280;35838;49.134;9.212;2022-10-31T02:38:29;100328.31;;;12.36;98.83
49945;BME280;35838;49.134;9.212;2022-10-31T02:40:14;100329.19;;;12.33;99.19
49945;BME280;35838;49.134;9.212;2022-10-31T02:41:50;100323.09;;;12.36;99.09
49945;BME280;35838;49.134;9.212;2022-10-31T02:43:32;100328.31;;;12.30;99.36
49945;BME280;35838;49.134;9.212;2022-10-31T02:45:13;100337.88;;;12.32;99.68
49945;BME280;35838;49.134;9.212;2022-10-31T02:46:54;100334.38;;;12.33;99.94
49945;BME280;35838;49.134;9.212;2022-10-31T02:48:33;100330.03;;;12.37;99.92
49945;BME280;35838;49.134;9.212;2022-10-31T02:50:09;100327.41;;;12.38;99.74
49945;BME280;35838;49.134;9.212;2022-10-31T02:51:43;100329.16;;;12.40;99.75
49945;BME280;35838;49.134;9.212;2022-10-31T02:53:19;100326.56;;;12.38;99.71
49945;BME280;35838;49.134;9.212;2022-10-31T02:54:53;100331.78;;;12.38;99.72
49945;BME280;35838;49.134;9.212;2022-10-31T02:56:35;100326.56;;;12.38;99.95
49945;BME280;35838;49.134;9.212;2022-10-31T02:58:12;100327.41;;;12.35;100.00
49945;BME280;35838;49.134;9.212;2022-10-31T02:59:46;100327.44;;;12.34;100.00
49945;BME280;35838;49.134;9.212;2022-10-31T03:03:23;100330.00;;;12.46;100.00
49945;BME280;35838;49.134;9.212;2022-10-31T03:05:12;100326.50;;;12.46;100.00
49945;BME280;35838;49.134;9.212;2022-10-31T03:06:54;100327.41;;;12.40;100.00
49945;BME280;35838;49.134;9.212;2022-10-31T03:08:35;100325.66;;;12.42;100.00
49945;BME280;35838;49.134;9.212;2022-10-31T03:10:17;100326.53;;;12.44;99.89
49945;BME280;35838;49.134;9.212;2022-10-31T03:11:58;100325.63;;;12.47;99.62
49945;BME280;35838;49.134;9.212;2022-10-31T03:13:38;100322.22;;;12.38;99.80
49945;BME280;35838;49.134;9.212;2022-10-31T03:15:19;100332.59;;;12.43;99.60
49945;BME280;35838;49.134;9.212;2022-10-31T03:16:58;100334.34;;;12.43;99.98
49945;BME280;35838;49.134;9.212;2022-10-31T03:18:34;100330.00;;;12.43;100.00
49945;BME280;35838;49.134;9.212;2022-10-31T03:20:11;100331.72;;;12.44;100.00
49945;BME280;35838;49.134;9.212;2022-10-31T03:21:48;100332.59;;;12.43;100.00
49945;BME280;35838;49.134;9.212;2022-10-31T03:23:25;100330.84;;;12.50;100.00
49945;BME280;35838;49.134;9.212;2022-10-31T03:25:02;100334.28;;;12.52;100.00
49945;BME280;35838;49.134;9.212;2022-10-31T03:26:40;100336.03;;;12.54;100.00
49945;BME280;35838;49.134;9.212;2022-10-31T03:28:18;100336.91;;;12.50;100.00
49945;BME280;35838;49.134;9.212;2022-10-31T03:29:57;100330.00;;;12.46;100.00
49945;BME280;35838;49.134;9.212;2022-10-31T03:31:36;100331.72;;;12.44;100.00
49945;BME280;35838;49.134;9.212;2022-10-31T03:33:15;100331.69;;;12.47;100.00
49945;BME280;35838;49.134;9.212;2022-10-31T03:34:54;100336.03;;;12.48;100.00
49945;BME280;35838;49.134;9.212;2022-10-31T03:36:28;100333.53;;;12.27;100.00
49945;BME280;35838;49.134;9.212;2022-10-31T03:38:04;100335.38;;;12.07;100.00
49945;BME280;35838;49.134;9.212;2022-10-31T03:39:39;100335.34;;;11.97;100.00
49945;BME280;35838;49.134;9.212;2022-10-31T03:41:17;100331.03;;;11.94;100.00
49945;BME280;35838;49.134;9.212;2022-10-31T03:42:57;100338.81;;;12.05;100.00
49945;BME280;35838;49.134;9.212;2022-10-31T03:44:34;100338.78;;;12.13;100.00
49945;BME280;35838;49.134;9.212;2022-10-31T03:46:09;100336.19;;;12.13;100.00
49945;BME280;35838;49.134;9.212;2022-10-31T03:47:44;100332.72;;;12.15;100.00
49945;BME280;35838;49.134;9.212;2022-10-31T03:49:18;100327.47;;;12.25;100.00
49945;BME280;35838;49.134;9.212;2022-10-31T03:50:57;100337.00;;;12.29;100.00
49945;BME280;35838;49.134;9.212;2022-10-31T03:52:36;100336.13;;;12.33;100.00
49945;BME280;35838;49.134;9.212;2022-10-31T03:54:15;100336.13;;;12.30;100.00
49945;BME280;35838;49.134;9.212;2022-10-31T03:55:58;100333.50;;;12.36;100.00
49945;BME280;35838;49.134;9.212;2022-10-31T03:57:39;100334.34;;;12.40;100.00
49945;BME280;35838;49.134;9.212;2022-10-31T03:59:19;100336.97;;;12.43;100.00
49945;BME280;35838;49.134;9.212;2022-10-31T04:00:56;100334.38;;;12.38;100.00
49945;BME280;35838;49.134;9.212;2022-10-31T04:02:33;100337.78;;;12.45;100.00
49945;BME280;35838;49.134;9.212;2022-10-31T04:04:06;100336.94;;;12.41;100.00
49945;BME280;35838;49.134;9.212;2022-10-31T04:05:41;100336.97;;;12.35;100.00
49945;BME280;35838;49.134;9.212;2022-10-31T04:07:20;100328.25;;;12.39;100.00
49945;BME280;35838;49.134;9.212;2022-10-31T04:08:57;100331.75;;;12.40;100.00
49945;BME280;35838;49.134;9.212;2022-10-31T04:10:35;100325.72;;;12.31;100.00
49945;BME280;35838;49.134;9.212;2022-10-31T04:12:08;100330.06;;;12.28;100.00
49945;BME280;35838;49.134;9.212;2022-10-31T04:13:47;100326.66;;;12.15;100.00
49945;BME280;35838;49.134;9.212;2022-10-31T04:16:55;100329.28;;;11.96;100.00
49945;BME280;35838;49.134;9.212;2022-10-31T04:18:29;100320.59;;;12.05;100.00
49945;BME280;35838;49.134;9.212;2022-10-31T04:20:05;100327.56;;;12.04;100.00
49945;BME280;35838;49.134;9.212;2022-10-31T04:21:39;100320.63;;;11.82;100.00
49945;BME280;35838;49.134;9.212;2022-10-31T04:23:19;100317.19;;;11.73;100.00
49945;BME280;35838;49.134;9.212;2022-10-31T04:24:53;100316.31;;;11.82;100.00
49945;BME280;35838;49.134;9.212;2022-10-31T04:26:27;100315.44;;;11.93;100.00
49945;BME280;35838;49.134;9.212;2022-10-31T04:27:59;100318.03;;;11.93;100.00
49945;BME280;35838;49.134;9.212;2022-10-31T04:29:33;100314.56;;;11.94;100.00
49945;BME280;35838;49.134;9.212;2022-10-31T04:31:04;100316.34;;;11.67;100.00
49945;BME280;35838;49.134;9.212;2022-10-31T04:32:38;100313.75;;;11.54;100.00
49945;BME280;35838;49.134;9.212;2022-10-31T04:34:10;100320.72;;;11.35;100.00
49945;BME280;35838;49.134;9.212;2022-10-31T04:35:44;100316.38;;;11.22;100.00
49945;BME280;35838;49.134;9.212;2022-10-31T04:37:16;100319.84;;;11.16;100.00
49945;BME280;35838;49.134;9.212;2022-10-31T04:38:54;100322.44;;;11.01;100.00
49945;BME280;35838;49.134;9.212;2022-10-31T04:40:28;100315.50;;;11.00;100.00
49945;BME280;35838;49.134;9.212;2022-10-31T04:42:02;100322.44;;;11.10;100.00
49945;BME280;35838;49.134;9.212;2022-10-31T04:43:33;100318.97;;;11.26;100.00
49945;BME280;35838;49.134;9.212;2022-10-31T04:45:08;100316.38;;;11.36;100.00
49945;BME280;35838;49.134;9.212;2022-10-31T04:46:42;100319.84;;;11.25;100.00
49945;BME280;35838;49.134;9.212;2022-10-31T04:48:16;100315.50;;;11.29;100.00
49945;BME280;35838;49.134;9.212;2022-10-31T04:49:50;100319.88;;;11.22;100.00
49945;BME280;35838;49.134;9.212;2022-10-31T04:51:24;100304.28;;;11.22;100.00
49945;BME280;35838;49.134;9.212;2022-10-31T04:52:56;100311.22;;;11.33;100.00
49945;BME280;35838;49.134;9.212;2022-10-31T04:54:32;100316.38;;;11.42;100.00
49945;BME280;35838;49.134;9.212;2022-10-31T04:56:04;100309.47;;;11.50;100.00
49945;BME280;35838;49.134;9.212;2022-10-31T04:57:42;100310.31;;;11.55;100.00
49945;BME280;35838;49.134;9.212;2022-10-31T04:59:16;100307.72;;;11.43;100.00
49945;BME280;35838;49.134;9.212;2022-10-31T05:00:51;100309.47;;;11.41;100.00
49945;BME280;35838;49.134;9.212;2022-10-31T05:02:25;100305.13;;;11.41;100.00
49945;BME280;35838;49.134;9.212;2022-10-31T05:03:59;100304.28;;;11.41;100.00
49945;BME280;35838;49.134;9.212;2022-10-31T05:05:31;100305.13;;;11.40;100.00
49945;BME280;35838;49.134;9.212;2022-10-31T05:07:05;100299.06;;;11.50;100.00
49945;BME280;35838;49.134;9.212;2022-10-31T05:08:39;100297.31;;;11.58;100.00
49945;BME280;35838;49.134;9.212;2022-10-31T05:10:18;100292.09;;;11.62;100.00
49945;BME280;35838;49.134;9.212;2022-10-31T05:11:52;100298.16;;;11.68;100.00
49945;BME280;35838;49.134;9.212;2022-10-31T05:13:26;100291.22;;;11.64;100.00
49945;BME280;35838;49.134;9.212;2022-10-31T05:15:00;100282.53;;;11.70;100.00
49945;BME280;35838;49.134;9.212;2022-10-31T05:16:34;100284.25;;;11.72;100.00
49945;BME280;35838;49.134;9.212;2022-10-31T05:18:08;100284.25;;;11.77;100.00
49945;BME280;35838;49.134;9.212;2022-10-31T05:19:39;100283.41;;;11.69;100.00
49945;BME280;35838;49.134;9.212;2022-10-31T05:21:13;100281.72;;;11.55;100.00
49945;BME280;35838;49.134;9.212;2022-10-31T05:22:49;100290.38;;;11.42;100.00
49945;BME280;35838;49.134;9.212;2022-10-31T05:24:23;100280.91;;;11.22;100.00
49945;BME280;35838;49.134;9.212;2022-10-31T05:25:59;100284.38;;;11.10;100.00
49945;BME280;35838;49.134;9.212;2022-10-31T05:27:33;100286.97;;;10.96;100.00
49945;BME280;35838;49.134;9.212;2022-10-31T05:29:07;100287.81;;;10.95;100.00
49945;BME280;35838;49.134;9.212;2022-10-31T05:30:41;100285.22;;;10.91;100.00
49945;BME280;35838;49.134;9.212;2022-10-31T05:32:15;100287.81;;;11.03;100.00
49945;BME280;35838;49.134;9.212;2022-10-31T05:33:49;100289.53;;;11.18;100.00
49945;BME280;35838;49.134;9.212;2022-10-31T05:35:25;100273.09;;;11.28;100.00
49945;BME280;35838;49.134;9.212;2022-10-31T05:36:59;100277.41;;;11.36;100.00
49945;BME280;35838;49.134;9.212;2022-10-31T05:38:30;100281.72;;;11.43;100.00
49945;BME280;35838;49.134;9.212;2022-10-31T05:40:06;100283.47;;;11.50;100.00
49945;BME280;35838;49.134;9.212;2022-10-31T05:41:43;100282.59;;;11.39;100.00
49945;BME280;35838;49.134;9.212;2022-10-31T05:43:17;100277.44;;;11.14;100.00
49945;BME280;35838;49.134;9.212;2022-10-31T05:44:51;100280.03;;;10.95;100.00
49945;BME280;35838;49.134;9.212;2022-10-31T05:46:25;100280.88;;;11.07;100.00
49945;BME280;35838;49.134;9.212;2022-10-31T05:48:00;100273.97;;;11.12;100.00
49945;BME280;35838;49.134;9.212;2022-10-31T05:49:34;100271.38;;;11.17;100.00
49945;BME280;35838;49.134;9.212;2022-10-31T05:51:06;100266.16;;;11.27;100.00
49945;BME280;35838;49.134;9.212;2022-10-31T05:52:40;100275.69;;;11.41;100.00
49945;BME280;35838;49.134;9.212;2022-10-31T05:54:14;100275.69;;;11.46;100.00
49945;BME280;35838;49.134;9.212;2022-10-31T05:55:48;100276.53;;;11.46;100.00
49945;BME280;35838;49.134;9.212;2022-10-31T05:57:25;100275.66;;;11.52;100.00
49945;BME280;35838;49.134;9.212;2022-10-31T05:58:56;100278.22;;;11.58;100.00
49945;BME280;35838;49.134;9.212;2022-10-31T06:00:30;100273.88;;;11.62;100.00
49945;BME280;35838;49.134;9.212;2022-10-31T06:02:05;100274.75;;;11.67;100.00
49945;BME280;35838;49.134;9.212;2022-10-31T06:03:37;100267.78;;;11.69;100.00
49945;BME280;35838;49.134;9.212;2022-10-31T06:05:11;100271.28;;;11.69;100.00
49945;BME280;35838;49.134;9.212;2022-10-31T06:06:43;100281.66;;;11.74;100.00
49945;BME280;35838;49.134;9.212;2022-10-31T06:08:16;100279.06;;;11.75;100.00
49945;BME280;35838;49.134;9.212;2022-10-31T06:09:50;100276.41;;;11.82;100.00
49945;BME280;35838;49.134;9.212;2022-10-31T06:11:22;100274.72;;;11.85;100.00
49945;BME280;35838;49.134;9.212;2022-10-31T06:12:59;100279.91;;;11.81;100.00
49945;BME280;35838;49.134;9.212;2022-10-31T06:14:33;100282.50;;;11.82;100.00
49945;BME280;35838;49.134;9.212;2022-10-31T06:16:05;100284.22;;;11.89;100.00
49945;BME280;35838;49.134;9.212;2022-10-31T06:17:39;100287.69;;;11.91;100.00
49945;BME280;35838;49.134;9.212;2022-10-31T06:19:13;100280.72;;;11.92;100.00
49945;BME280;35838;49.134;9.212;2022-10-31T06:20:47;100285.94;;;11.92;100.00
49945;BME280;35838;49.134;9.212;2022-10-31T06:22:21;100286.78;;;11.96;100.00
49945;BME280;35838;49.134;9.212;2022-10-31T06:23:55;100293.75;;;12.03;100.00
49945;BME280;35838;49.134;9.212;2022-10-31T06:25:29;100275.56;;;11.86;100.00
49945;BME280;35838;49.134;9.212;2022-10-31T06:27:04;100281.63;;;11.82;100.00
49945;BME280;35838;49.134;9.212;2022-10-31T06:28:38;100281.59;;;11.86;100.00
49945;BME280;35838;49.134;9.212;2022-10-31T06:30:13;100289.41;;;11.91;100.00
49945;BME280;35838;49.134;9.212;2022-10-31T06:31:47;100290.31;;;11.90;100.00
49945;BME280;35838;49.134;9.212;2022-10-31T06:33:18;100289.41;;;11.89;100.00
49945;BME280;35838;49.134;9.212;2022-10-31T06:34:52;100294.63;;;11.93;100.00
49945;BME280;35838;49.134;9.212;2022-10-31T06:36:26;100291.16;;;11.83;100.00
49945;BME280;35838;49.134;9.212;2022-10-31T06:38:00;100289.41;;;11.89;100.00
49945;BME280;35838;49.134;9.212;2022-10-31T06:39:34;100286.81;;;11.91;100.00
49945;BME280;35838;49.134;9.212;2022-10-31T06:41:08;100285.94;;;11.90;100.00
49945;BME280;35838;49.134;9.212;2022-10-31T06:42:42;100286.81;;;11.93;100.00
49945;BME280;35838;49.134;9.212;2022-10-31T06:44:19;100287.69;;;11.91;100.00
49945;BME280;35838;49.134;9.212;2022-10-31T06:45:53;100291.16;;;11.89;100.00
49945;BME280;35838;49.134;9.212;2022-10-31T06:47:27;100293.75;;;11.90;100.00
49945;BME280;35838;49.134;9.212;2022-10-31T06:49:01;100290.31;;;11.85;100.00
49945;BME280;35838;49.134;9.212;2022-10-31T06:50:35;100294.59;;;11.91;100.00
49945;BME280;35838;49.134;9.212;2022-10-31T06:52:09;100288.53;;;11.92;100.00
49945;BME280;35838;49.134;9.212;2022-10-31T06:53:43;100292.03;;;11.80;100.00
49945;BME280;35838;49.134;9.212;2022-10-31T06:55:17;100291.16;;;11.89;100.00
49945;BME280;35838;49.134;9.212;2022-10-31T06:56:51;100294.63;;;11.77;100.00
49945;BME280;35838;49.134;9.212;2022-10-31T06:58:26;100297.25;;;11.75;100.00
49945;BME280;35838;49.134;9.212;2022-10-31T07:00:03;100297.31;;;11.55;100.00
49945;BME280;35838;49.134;9.212;2022-10-31T07:01:37;100295.56;;;11.67;100.00
49945;BME280;35838;49.134;9.212;2022-10-31T07:03:12;100295.56;;;11.57;100.00
49945;BME280;35838;49.134;9.212;2022-10-31T07:04:46;100297.31;;;11.46;100.00
49945;BME280;35838;49.134;9.212;2022-10-31T07:06:20;100297.31;;;11.43;100.00
49945;BME280;35838;49.134;9.212;2022-10-31T07:07:55;100296.47;;;11.50;100.00
49945;BME280;35838;49.134;9.212;2022-10-31T07:09:29;100299.06;;;11.15;100.00
49945;BME280;35838;49.134;9.212;2022-10-31T07:11:03;100300.81;;;11.02;100.00
49945;BME280;35838;49.134;9.212;2022-10-31T07:12:37;100303.41;;;10.97;100.00
49945;BME280;35838;49.134;9.212;2022-10-31T07:14:12;100299.06;;;11.04;100.00
49945;BME280;35838;49.134;9.212;2022-10-31T07:15:48;100301.69;;;11.04;100.00
49945;BME280;35838;49.134;9.212;2022-10-31T07:17:23;100300.78;;;10.89;100.00
49945;BME280;35838;49.134;9.212;2022-10-31T07:18:57;100302.50;;;10.72;100.00
49945;BME280;35838;49.134;9.212;2022-10-31T07:20:31;100299.88;;;10.67;100.00
49945;BME280;35838;49.134;9.212;2022-10-31T07:22:03;100301.66;;;10.79;100.00
49945;BME280;35838;49.134;9.212;2022-10-31T07:23:37;100306.00;;;10.92;100.00
49945;BME280;35838;49.134;9.212;2022-10-31T07:25:11;100314.66;;;11.01;100.00
49945;BME280;35838;49.134;9.212;2022-10-31T07:26:45;100310.31;;;10.93;100.00
49945;BME280;35838;49.134;9.212;2022-10-31T07:28:20;100313.78;;;11.02;100.00
49945;BME280;35838;49.134;9.212;2022-10-31T07:29:54;100312.91;;;10.93;100.00
49945;BME280;35838;49.134;9.212;2022-10-31T07:31:30;100316.38;;;10.95;100.00
49945;BME280;35838;49.134;9.212;2022-10-31T07:33:05;100308.56;;;10.85;100.00
49945;BME280;35838;49.134;9.212;2022-10-31T07:34:39;100312.94;;;10.87;100.00
49945;BME280;35838;49.134;9.212;2022-10-31T07:36:13;100317.25;;;11.01;100.00
49945;BME280;35838;49.134;9.212;2022-10-31T07:37:47;100317.25;;;10.96;100.00
49945;BME280;35838;49.134;9.212;2022-10-31T07:39:21;100307.75;;;10.96;100.00
49945;BME280;35838;49.134;9.212;2022-10-31T07:40:55;100312.94;;;11.03;100.00
49945;BME280;35838;49.134;9.212;2022-10-31T07:42:29;100310.31;;;11.15;100.00
49945;BME280;35838;49.134;9.212;2022-10-31T07:44:03;100312.03;;;11.02;100.00
49945;BME280;35838;49.134;9.212;2022-10-31T07:45:37;100308.59;;;10.91;100.00
49945;BME280;35838;49.134;9.212;2022-10-31T07:47:14;100308.56;;;10.94;100.00
49945;BME280;35838;49.134;9.212;2022-10-31T07:48:48;100311.22;;;11.05;100.00
49945;BME280;35838;49.134;9.212;2022-10-31T07:50:24;100312.06;;;11.15;100.00
49945;BME280;35838;49.134;9.212;2022-10-31T07:51:58;100301.69;;;11.32;100.00
49945;BME280;35838;49.134;9.212;2022-10-31T07:53:32;100305.13;;;11.35;100.00
49945;BME280;35838;49.134;9.212;2022-10-31T07:55:07;100306.84;;;11.35;100.00
49945;BME280;35838;49.134;9.212;2022-10-31T07:56:41;100307.72;;;11.35;100.00
49945;BME280;35838;49.134;9.212;2022-10-31T07:58:17;100310.31;;;11.20;100.00
49945;BME280;35838;49.134;9.212;2022-10-31T07:59:51;100306.84;;;11.21;100.00
49945;BME280;35838;49.134;9.212;2022-10-31T08:01:25;100309.47;;;11.32;100.00
49945;BME280;35838;49.134;9.212;2022-10-31T08:03:04;100307.72;;;11.43;100.00
49945;BME280;35838;49.134;9.212;2022-10-31T08:04:38;100307.72;;;11.49;100.00
49945;BME280;35838;49.134;9.212;2022-10-31T08:06:12;100311.19;;;11.57;100.00
49945;BME280;35838;49.134;9.212;2022-10-31T08:07:46;100305.94;;;11.64;100.00
49945;BME280;35838;49.134;9.212;2022-10-31T08:09:20;100314.63;;;11.63;100.00
49945;BME280;35838;49.134;9.212;2022-10-31T08:10:54;100312.06;;;11.50;100.00
49945;BME280;35838;49.134;9.212;2022-10-31T08:12:28;100312.06;;;11.33;100.00
49945;BME280;35838;49.134;9.212;2022-10-31T08:14:02;100311.19;;;11.20;100.00
49945;BME280;35838;49.134;9.212;2022-10-31T08:15:36;100312.06;;;11.21;100.00
49945;BME280;35838;49.134;9.212;2022-10-31T08:17:12;100306.00;;;11.29;100.00
49945;BME280;35838;49.134;9.212;2022-10-31T08:18:49;100304.25;;;11.35;100.00
49945;BME280;35838;49.134;9.212;2022-10-31T08:20:24;100306.88;;;11.36;100.00
49945;BME280;35838;49.134;9.212;2022-10-31T08:21:58;100303.38;;;11.48;100.00